sensor_id;sensor_type;location;lat;lon;timestamp;temperature;humidity
4727;DHT22;2377;51.734;8.950;2023-07-31T00:00:30;16.10;99.90
4727;DHT22;2377;51.734;8.950;2023-07-31T00:02:57;16.10;1.00
4727;DHT22;2377;51.734;8.950;2023-07-31T00:05:24;16.10;1.00
4727;DHT22;2377;51.734;8.950;2023-07-31T00:07:51;16.00;1.00
4727;DHT22;2377;51.734;8.950;2023-07-31T00:10:19;16.00;1.00
4727;DHT22;2377;51.734;8.950;2023-07-31T00:12:55;16.00;1.00
4727;DHT22;2377;51.734;8.950;2023-07-31T00:15:27;16.00;1.00
4727;DHT22;2377;51.734;8.950;2023-07-31T00:17:56;16.00;1.00
4727;DHT22;2377;51.734;8.950;2023-07-31T00:20:26;16.00;1.00
4727;DHT22;2377;51.734;8.950;2023-07-31T00:22:53;15.90;1.00
4727;DHT22;2377;51.734;8.950;2023-07-31T00:25:20;15.90;1.00
4727;DHT22;2377;51.734;8.950;2023-07-31T00:27:47;15.90;1.00
4727;DHT22;2377;51.734;8.950;2023-07-31T00:30:14;15.90;1.00
4727;DHT22;2377;51.734;8.950;2023-07-31T00:32:43;15.90;1.00
4727;DHT22;2377;51.734;8.950;2023-07-31T00:35:10;15.90;1.00
4727;DHT22;2377;51.734;8.950;2023-07-31T00:37:37;15.90;1.00
4727;DHT22;2377;51.734;8.950;2023-07-31T00:40:05;15.80;1.00
4727;DHT22;2377;51.734;8.950;2023-07-31T00:42:33;15.80;1.00
4727;DHT22;2377;51.734;8.950;2023-07-31T00:45:00;15.80;1.00
4727;DHT22;2377;51.734;8.950;2023-07-31T00:47:27;15.80;1.00
4727;DHT22;2377;51.734;8.950;2023-07-31T00:49:59;15.80;1.00
4727;DHT22;2377;51.734;8.950;2023-07-31T00:52:27;15.80;1.00
4727;DHT22;2377;51.734;8.950;2023-07-31T00:55:08;15.80;1.00
4727;DHT22;2377;51.734;8.950;2023-07-31T00:57:37;15.80;1.00
4727;DHT22;2377;51.734;8.950;2023-07-31T01:00:08;15.80;1.00
4727;DHT22;2377;51.734;8.950;2023-07-31T01:02:36;15.90;1.00
4727;DHT22;2377;51.734;8.950;2023-07-31T01:05:06;15.80;1.00
4727;DHT22;2377;51.734;8.950;2023-07-31T01:07:45;15.80;1.00
4727;DHT22;2377;51.734;8.950;2023-07-31T01:10:21;15.90;1.00
4727;DHT22;2377;51.734;8.950;2023-07-31T01:12:56;15.80;1.00
4727;DHT22;2377;51.734;8.950;2023-07-31T01:15:25;15.80;1.00
4727;DHT22;2377;51.734;8.950;2023-07-31T01:17:55;15.80;1.00
4727;DHT22;2377;51.734;8.950;2023-07-31T01:20:27;15.80;1.00
4727;DHT22;2377;51.734;8.950;2023-07-31T01:26:12;15.80;1.00
4727;DHT22;2377;51.734;8.950;2023-07-31T01:28:53;15.80;1.00
4727;DHT22;2377;51.734;8.950;2023-07-31T01:31:24;15.80;1.00
4727;DHT22;2377;51.734;8.950;2023-07-31T01:33:54;15.80;1.00
4727;DHT22;2377;51.734;8.950;2023-07-31T01:36:25;15.80;1.00
4727;DHT22;2377;51.734;8.950;2023-07-31T01:38:53;15.80;1.00
4727;DHT22;2377;51.734;8.950;2023-07-31T01:41:26;15.80;1.00
4727;DHT22;2377;51.734;8.950;2023-07-31T01:43:56;15.80;1.00
4727;DHT22;2377;51.734;8.950;2023-07-31T01:46:24;15.80;1.00
4727;DHT22;2377;51.734;8.950;2023-07-31T01:48:56;15.80;1.00
4727;DHT22;2377;51.734;8.950;2023-07-31T01:51:25;15.80;1.00
4727;DHT22;2377;51.734;8.950;2023-07-31T01:54:01;15.80;1.00
4727;DHT22;2377;51.734;8.950;2023-07-31T01:56:30;15.70;1.00
4727;DHT22;2377;51.734;8.950;2023-07-31T01:58:57;15.70;1.00
4727;DHT22;2377;51.734;8.950;2023-07-31T02:01:30;15.60;1.00
4727;DHT22;2377;51.734;8.950;2023-07-31T02:04:38;15.60;1.00
4727;DHT22;2377;51.734;8.950;2023-07-31T02:07:04;15.80;1.00
4727;DHT22;2377;51.734;8.950;2023-07-31T02:09:32;15.70;1.00
4727;DHT22;2377;51.734;8.950;2023-07-31T02:12:00;15.70;1.00
4727;DHT22;2377;51.734;8.950;2023-07-31T02:14:27;15.80;1.00
4727;DHT22;2377;51.734;8.950;2023-07-31T02:16:55;15.80;1.00
4727;DHT22;2377;51.734;8.950;2023-07-31T02:19:22;15.70;1.00
4727;DHT22;2377;51.734;8.950;2023-07-31T02:21:49;15.70;1.00
4727;DHT22;2377;51.734;8.950;2023-07-31T02:24:16;15.70;1.00
4727;DHT22;2377;51.734;8.950;2023-07-31T02:26:43;15.70;1.00
4727;DHT22;2377;51.734;8.950;2023-07-31T02:29:12;15.60;1.00
4727;DHT22;2377;51.734;8.950;2023-07-31T02:31:39;15.70;1.00
4727;DHT22;2377;51.734;8.950;2023-07-31T02:34:06;15.60;1.00
4727;DHT22;2377;51.734;8.950;2023-07-31T02:36:33;15.60;1.00
4727;DHT22;2377;51.734;8.950;2023-07-31T02:39:00;15.60;1.00
4727;DHT22;2377;51.734;8.950;2023-07-31T02:41:27;15.60;1.00
4727;DHT22;2377;51.734;8.950;2023-07-31T02:43:54;15.60;1.00
4727;DHT22;2377;51.734;8.950;2023-07-31T02:46:23;15.60;1.00
4727;DHT22;2377;51.734;8.950;2023-07-31T02:48:50;15.60;1.00
4727;DHT22;2377;51.734;8.950;2023-07-31T02:51:17;15.60;1.00
4727;DHT22;2377;51.734;8.950;2023-07-31T02:53:46;15.60;1.00
4727;DHT22;2377;51.734;8.950;2023-07-31T02:56:15;15.50;1.00
4727;DHT22;2377;51.734;8.950;2023-07-31T02:58:42;15.60;1.00
4727;DHT22;2377;51.734;8.950;2023-07-31T03:01:12;15.60;1.00
4727;DHT22;2377;51.734;8.950;2023-07-31T03:03:42;15.50;1.00
4727;DHT22;2377;51.734;8.950;2023-07-31T03:06:09;15.60;1.00
4727;DHT22;2377;51.734;8.950;2023-07-31T03:08:36;15.50;1.00
4727;DHT22;2377;51.734;8.950;2023-07-31T03:11:03;15.50;1.00
4727;DHT22;2377;51.734;8.950;2023-07-31T03:13:30;15.50;1.00
4727;DHT22;2377;51.734;8.950;2023-07-31T03:15:58;15.60;1.00
4727;DHT22;2377;51.734;8.950;2023-07-31T03:18:25;15.60;1.00
4727;DHT22;2377;51.734;8.950;2023-07-31T03:20:53;15.60;1.00
4727;DHT22;2377;51.734;8.950;2023-07-31T03:23:20;15.50;1.00
4727;DHT22;2377;51.734;8.950;2023-07-31T03:25:57;15.50;1.00
4727;DHT22;2377;51.734;8.950;2023-07-31T03:28:25;15.50;1.00
4727;DHT22;2377;51.734;8.950;2023-07-31T03:30:52;15.60;1.00
4727;DHT22;2377;51.734;8.950;2023-07-31T03:33:20;15.60;1.00
4727;DHT22;2377;51.734;8.950;2023-07-31T03:35:47;15.60;1.00
4727;DHT22;2377;51.734;8.950;2023-07-31T03:38:15;15.60;1.00
4727;DHT22;2377;51.734;8.950;2023-07-31T03:40:43;15.60;1.00
4727;DHT22;2377;51.734;8.950;2023-07-31T03:43:11;15.50;1.00
4727;DHT22;2377;51.734;8.950;2023-07-31T03:45:38;15.50;1.00
4727;DHT22;2377;51.734;8.950;2023-07-31T03:48:05;15.50;1.00
4727;DHT22;2377;51.734;8.950;2023-07-31T03:50:33;15.50;1.00
4727;DHT22;2377;51.734;8.950;2023-07-31T03:53:00;15.50;1.00
4727;DHT22;2377;51.734;8.950;2023-07-31T03:55:29;15.60;1.00
4727;DHT22;2377;51.734;8.950;2023-07-31T03:57:56;15.50;1.00
4727;DHT22;2377;51.734;8.950;2023-07-31T04:00:23;15.50;1.00
4727;DHT22;2377;51.734;8.950;2023-07-31T04:02:50;15.50;1.00
4727;DHT22;2377;51.734;8.950;2023-07-31T04:05:18;15.50;1.00
4727;DHT22;2377;51.734;8.950;2023-07-31T04:07:45;15.50;1.00
4727;DHT22;2377;51.734;8.950;2023-07-31T04:10:12;15.50;1.00
4727;DHT22;2377;51.734;8.950;2023-07-31T04:12:40;15.50;1.00
4727;DHT22;2377;51.734;8.950;2023-07-31T04:15:08;15.50;1.00
4727;DHT22;2377;51.734;8.950;2023-07-31T04:17:36;15.50;1.00
4727;DHT22;2377;51.734;8.950;2023-07-31T04:20:04;15.50;1.00
4727;DHT22;2377;51.734;8.950;2023-07-31T04:22:32;15.50;1.00
4727;DHT22;2377;51.734;8.950;2023-07-31T04:24:59;15.50;1.00
4727;DHT22;2377;51.734;8.950;2023-07-31T04:27:26;15.50;1.00
4727;DHT22;2377;51.734;8.950;2023-07-31T04:29:55;15.50;1.00
4727;DHT22;2377;51.734;8.950;2023-07-31T04:32:22;15.50;1.00
4727;DHT22;2377;51.734;8.950;2023-07-31T04:34:49;15.50;1.00
4727;DHT22;2377;51.734;8.950;2023-07-31T04:37:16;15.50;1.00
4727;DHT22;2377;51.734;8.950;2023-07-31T04:39:43;15.50;1.00
4727;DHT22;2377;51.734;8.950;2023-07-31T04:42:10;15.50;1.00
4727;DHT22;2377;51.734;8.950;2023-07-31T04:44:38;15.50;1.00
4727;DHT22;2377;51.734;8.950;2023-07-31T04:47:06;15.40;1.00
4727;DHT22;2377;51.734;8.950;2023-07-31T04:49:34;15.50;1.00
4727;DHT22;2377;51.734;8.950;2023-07-31T04:52:01;15.40;1.00
4727;DHT22;2377;51.734;8.950;2023-07-31T04:54:28;15.40;1.00
4727;DHT22;2377;51.734;8.950;2023-07-31T04:56:55;15.40;1.00
4727;DHT22;2377;51.734;8.950;2023-07-31T04:59:23;15.40;1.00
4727;DHT22;2377;51.734;8.950;2023-07-31T05:01:50;15.30;1.00
4727;DHT22;2377;51.734;8.950;2023-07-31T05:04:18;15.40;1.00
4727;DHT22;2377;51.734;8.950;2023-07-31T05:06:45;15.30;1.00
4727;DHT22;2377;51.734;8.950;2023-07-31T05:09:13;15.30;1.00
4727;DHT22;2377;51.734;8.950;2023-07-31T05:11:40;15.40;1.00
4727;DHT22;2377;51.734;8.950;2023-07-31T05:14:08;15.40;1.00
4727;DHT22;2377;51.734;8.950;2023-07-31T05:16:35;15.40;1.00
4727;DHT22;2377;51.734;8.950;2023-07-31T05:19:02;15.50;1.00
4727;DHT22;2377;51.734;8.950;2023-07-31T05:21:31;15.50;1.00
4727;DHT22;2377;51.734;8.950;2023-07-31T05:23:58;15.50;1.00
4727;DHT22;2377;51.734;8.950;2023-07-31T05:26:25;15.50;1.00
4727;DHT22;2377;51.734;8.950;2023-07-31T05:28:52;15.40;1.00
4727;DHT22;2377;51.734;8.950;2023-07-31T05:31:20;15.50;1.00
4727;DHT22;2377;51.734;8.950;2023-07-31T05:33:48;15.40;1.00
4727;DHT22;2377;51.734;8.950;2023-07-31T05:36:16;15.50;1.00
4727;DHT22;2377;51.734;8.950;2023-07-31T05:38:45;15.50;1.00
4727;DHT22;2377;51.734;8.950;2023-07-31T05:41:12;15.50;1.00
4727;DHT22;2377;51.734;8.950;2023-07-31T05:43:39;15.60;1.00
4727;DHT22;2377;51.734;8.950;2023-07-31T05:46:07;15.60;1.00
4727;DHT22;2377;51.734;8.950;2023-07-31T05:48:34;15.60;1.00
4727;DHT22;2377;51.734;8.950;2023-07-31T05:51:02;15.60;1.00
4727;DHT22;2377;51.734;8.950;2023-07-31T05:53:29;15.60;1.00
4727;DHT22;2377;51.734;8.950;2023-07-31T05:55:57;15.70;1.00
4727;DHT22;2377;51.734;8.950;2023-07-31T05:58:25;15.70;1.00
4727;DHT22;2377;51.734;8.950;2023-07-31T06:00:52;15.80;1.00
4727;DHT22;2377;51.734;8.950;2023-07-31T06:03:19;15.80;1.00
4727;DHT22;2377;51.734;8.950;2023-07-31T06:05:46;15.80;1.00
4727;DHT22;2377;51.734;8.950;2023-07-31T06:08:13;15.80;1.00
4727;DHT22;2377;51.734;8.950;2023-07-31T06:10:40;15.90;1.00
4727;DHT22;2377;51.734;8.950;2023-07-31T06:13:09;15.90;1.00
4727;DHT22;2377;51.734;8.950;2023-07-31T06:15:36;15.90;1.00
4727;DHT22;2377;51.734;8.950;2023-07-31T06:18:03;15.90;1.00
4727;DHT22;2377;51.734;8.950;2023-07-31T06:20:33;15.80;1.00
4727;DHT22;2377;51.734;8.950;2023-07-31T06:23:00;15.80;1.00
4727;DHT22;2377;51.734;8.950;2023-07-31T06:25:28;15.80;1.00
4727;DHT22;2377;51.734;8.950;2023-07-31T06:27:55;15.80;1.00
4727;DHT22;2377;51.734;8.950;2023-07-31T06:30:23;15.80;1.00
4727;DHT22;2377;51.734;8.950;2023-07-31T06:32:50;15.90;1.00
4727;DHT22;2377;51.734;8.950;2023-07-31T06:35:18;16.00;1.00
4727;DHT22;2377;51.734;8.950;2023-07-31T06:37:45;16.00;1.00
4727;DHT22;2377;51.734;8.950;2023-07-31T06:40:12;16.00;1.00
4727;DHT22;2377;51.734;8.950;2023-07-31T06:42:39;16.00;1.00
4727;DHT22;2377;51.734;8.950;2023-07-31T06:45:07;16.00;1.00
4727;DHT22;2377;51.734;8.950;2023-07-31T06:47:36;16.00;1.00
4727;DHT22;2377;51.734;8.950;2023-07-31T06:50:04;16.00;1.00
4727;DHT22;2377;51.734;8.950;2023-07-31T06:52:32;16.00;1.00
4727;DHT22;2377;51.734;8.950;2023-07-31T06:55:03;16.10;1.00
4727;DHT22;2377;51.734;8.950;2023-07-31T06:57:43;16.10;1.00
4727;DHT22;2377;51.734;8.950;2023-07-31T07:00:11;16.00;1.00
4727;DHT22;2377;51.734;8.950;2023-07-31T07:02:40;16.00;1.00
4727;DHT22;2377;51.734;8.950;2023-07-31T07:05:07;16.00;1.00
4727;DHT22;2377;51.734;8.950;2023-07-31T07:07:35;16.00;1.00
4727;DHT22;2377;51.734;8.950;2023-07-31T07:10:03;16.00;1.00
4727;DHT22;2377;51.734;8.950;2023-07-31T07:12:32;16.00;1.00
4727;DHT22;2377;51.734;8.950;2023-07-31T07:15:00;16.00;1.00
4727;DHT22;2377;51.734;8.950;2023-07-31T07:17:29;16.00;1.00
4727;DHT22;2377;51.734;8.950;2023-07-31T07:19:58;16.00;1.00
4727;DHT22;2377;51.734;8.950;2023-07-31T07:22:26;16.00;1.00
4727;DHT22;2377;51.734;8.950;2023-07-31T07:24:53;16.10;1.00
4727;DHT22;2377;51.734;8.950;2023-07-31T07:27:21;16.10;1.00
4727;DHT22;2377;51.734;8.950;2023-07-31T07:29:50;16.10;1.00
4727;DHT22;2377;51.734;8.950;2023-07-31T07:32:18;16.10;1.00
4727;DHT22;2377;51.734;8.950;2023-07-31T07:34:45;16.10;1.00
4727;DHT22;2377;51.734;8.950;2023-07-31T07:37:15;16.10;1.00
4727;DHT22;2377;51.734;8.950;2023-07-31T07:39:43;16.10;1.00
4727;DHT22;2377;51.734;8.950;2023-07-31T07:42:10;16.00;1.00
4727;DHT22;2377;51.734;8.950;2023-07-31T07:44:37;16.00;1.00
4727;DHT22;2377;51.734;8.950;2023-07-31T07:47:05;16.00;1.00
4727;DHT22;2377;51.734;8.950;2023-07-31T07:49:33;16.00;1.00
4727;DHT22;2377;51.734;8.950;2023-07-31T07:52:01;16.00;1.00
4727;DHT22;2377;51.734;8.950;2023-07-31T07:54:30;16.00;1.00
4727;DHT22;2377;51.734;8.950;2023-07-31T07:56:57;16.00;1.00
4727;DHT22;2377;51.734;8.950;2023-07-31T07:59:25;16.10;1.00
4727;DHT22;2377;51.734;8.950;2023-07-31T08:01:52;16.10;1.00
4727;DHT22;2377;51.734;8.950;2023-07-31T08:04:19;16.10;1.00
4727;DHT22;2377;51.734;8.950;2023-07-31T08:06:46;16.10;1.00
4727;DHT22;2377;51.734;8.950;2023-07-31T08:09:13;16.10;1.00
4727;DHT22;2377;51.734;8.950;2023-07-31T08:11:42;16.10;1.00
4727;DHT22;2377;51.734;8.950;2023-07-31T08:14:09;16.10;1.00
4727;DHT22;2377;51.734;8.950;2023-07-31T08:16:36;16.10;1.00
4727;DHT22;2377;51.734;8.950;2023-07-31T08:19:03;16.10;1.00
4727;DHT22;2377;51.734;8.950;2023-07-31T08:21:31;16.00;1.00
4727;DHT22;2377;51.734;8.950;2023-07-31T08:23:58;16.00;1.00
4727;DHT22;2377;51.734;8.950;2023-07-31T08:26:25;16.00;1.00
4727;DHT22;2377;51.734;8.950;2023-07-31T08:28:54;16.10;1.00
4727;DHT22;2377;51.734;8.950;2023-07-31T08:31:21;16.10;1.00
4727;DHT22;2377;51.734;8.950;2023-07-31T08:33:48;16.20;1.00
4727;DHT22;2377;51.734;8.950;2023-07-31T08:36:15;16.30;1.00
4727;DHT22;2377;51.734;8.950;2023-07-31T08:38:42;16.30;1.00
4727;DHT22;2377;51.734;8.950;2023-07-31T08:41:10;16.30;1.00
4727;DHT22;2377;51.734;8.950;2023-07-31T08:43:39;16.40;1.00
4727;DHT22;2377;51.734;8.950;2023-07-31T08:46:08;16.40;1.00
4727;DHT22;2377;51.734;8.950;2023-07-31T08:48:35;16.50;1.00
4727;DHT22;2377;51.734;8.950;2023-07-31T08:51:04;16.50;1.00
4727;DHT22;2377;51.734;8.950;2023-07-31T08:53:31;16.50;1.00
4727;DHT22;2377;51.734;8.950;2023-07-31T08:55:59;16.60;1.00
4727;DHT22;2377;51.734;8.950;2023-07-31T08:58:28;16.60;1.00
4727;DHT22;2377;51.734;8.950;2023-07-31T09:00:59;16.60;1.00
4727;DHT22;2377;51.734;8.950;2023-07-31T09:03:33;16.70;1.00
4727;DHT22;2377;51.734;8.950;2023-07-31T09:06:02;16.70;1.00
4727;DHT22;2377;51.734;8.950;2023-07-31T09:08:32;16.70;1.00
4727;DHT22;2377;51.734;8.950;2023-07-31T09:11:00;16.70;1.00
4727;DHT22;2377;51.734;8.950;2023-07-31T09:13:30;16.70;1.00
4727;DHT22;2377;51.734;8.950;2023-07-31T09:15:57;16.70;1.00
4727;DHT22;2377;51.734;8.950;2023-07-31T09:18:25;16.60;1.00
4727;DHT22;2377;51.734;8.950;2023-07-31T09:21:03;16.60;1.00
4727;DHT22;2377;51.734;8.950;2023-07-31T09:23:40;16.60;1.00
4727;DHT22;2377;51.734;8.950;2023-07-31T09:26:08;16.70;1.00
4727;DHT22;2377;51.734;8.950;2023-07-31T09:28:36;16.70;1.00
4727;DHT22;2377;51.734;8.950;2023-07-31T09:31:03;16.60;1.00
4727;DHT22;2377;51.734;8.950;2023-07-31T09:33:31;16.70;1.00
4727;DHT22;2377;51.734;8.950;2023-07-31T09:35:59;16.70;1.00
4727;DHT22;2377;51.734;8.950;2023-07-31T09:38:28;16.70;1.00
4727;DHT22;2377;51.734;8.950;2023-07-31T09:40:58;16.80;1.00
4727;DHT22;2377;51.734;8.950;2023-07-31T09:43:27;16.90;1.00
4727;DHT22;2377;51.734;8.950;2023-07-31T09:45:56;17.00;1.00
4727;DHT22;2377;51.734;8.950;2023-07-31T09:48:24;17.00;1.00
4727;DHT22;2377;51.734;8.950;2023-07-31T09:50:53;17.10;1.00
4727;DHT22;2377;51.734;8.950;2023-07-31T09:53:29;17.10;1.00
4727;DHT22;2377;51.734;8.950;2023-07-31T09:55:58;17.20;1.00
4727;DHT22;2377;51.734;8.950;2023-07-31T09:58:28;17.20;1.00
4727;DHT22;2377;51.734;8.950;2023-07-31T10:00:57;17.30;1.00
4727;DHT22;2377;51.734;8.950;2023-07-31T10:03:26;17.30;1.00
4727;DHT22;2377;51.734;8.950;2023-07-31T10:05:57;17.40;1.00
4727;DHT22;2377;51.734;8.950;2023-07-31T10:08:30;17.30;1.00
4727;DHT22;2377;51.734;8.950;2023-07-31T10:11:02;17.40;1.00
4727;DHT22;2377;51.734;8.950;2023-07-31T10:13:32;17.40;1.00
4727;DHT22;2377;51.734;8.950;2023-07-31T10:16:00;17.50;1.00
4727;DHT22;2377;51.734;8.950;2023-07-31T10:18:28;17.50;1.00
4727;DHT22;2377;51.734;8.950;2023-07-31T10:20:57;17.40;1.00
4727;DHT22;2377;51.734;8.950;2023-07-31T10:23:25;17.50;1.00
4727;DHT22;2377;51.734;8.950;2023-07-31T10:25:55;17.50;1.00
4727;DHT22;2377;51.734;8.950;2023-07-31T10:28:24;17.50;1.00
4727;DHT22;2377;51.734;8.950;2023-07-31T10:30:53;17.50;1.00
4727;DHT22;2377;51.734;8.950;2023-07-31T10:33:21;17.50;1.00
4727;DHT22;2377;51.734;8.950;2023-07-31T10:35:49;17.50;1.00
4727;DHT22;2377;51.734;8.950;2023-07-31T10:38:19;17.50;1.00
4727;DHT22;2377;51.734;8.950;2023-07-31T10:40:46;17.50;1.00
4727;DHT22;2377;51.734;8.950;2023-07-31T10:43:25;17.40;1.00
4727;DHT22;2377;51.734;8.950;2023-07-31T10:45:53;17.40;1.00
4727;DHT22;2377;51.734;8.950;2023-07-31T10:48:21;17.40;1.00
4727;DHT22;2377;51.734;8.950;2023-07-31T10:50:50;17.40;1.00
4727;DHT22;2377;51.734;8.950;2023-07-31T10:53:26;17.40;1.00
4727;DHT22;2377;51.734;8.950;2023-07-31T10:55:59;17.40;1.00
4727;DHT22;2377;51.734;8.950;2023-07-31T10:58:29;17.30;1.00
4727;DHT22;2377;51.734;8.950;2023-07-31T11:00:59;17.30;1.00
4727;DHT22;2377;51.734;8.950;2023-07-31T11:03:41;17.30;1.00
4727;DHT22;2377;51.734;8.950;2023-07-31T11:06:10;17.30;1.00
4727;DHT22;2377;51.734;8.950;2023-07-31T11:08:42;17.30;1.00
4727;DHT22;2377;51.734;8.950;2023-07-31T11:11:11;17.30;1.00
4727;DHT22;2377;51.734;8.950;2023-07-31T11:13:43;17.30;1.00
4727;DHT22;2377;51.734;8.950;2023-07-31T11:16:12;17.10;1.00
4727;DHT22;2377;51.734;8.950;2023-07-31T11:18:40;17.10;1.00
4727;DHT22;2377;51.734;8.950;2023-07-31T11:21:08;17.10;1.00
4727;DHT22;2377;51.734;8.950;2023-07-31T11:23:39;17.10;1.00
4727;DHT22;2377;51.734;8.950;2023-07-31T11:26:07;17.10;1.00
4727;DHT22;2377;51.734;8.950;2023-07-31T11:28:34;17.10;1.00
4727;DHT22;2377;51.734;8.950;2023-07-31T11:31:08;17.10;1.00
4727;DHT22;2377;51.734;8.950;2023-07-31T11:33:36;17.10;1.00
4727;DHT22;2377;51.734;8.950;2023-07-31T11:36:04;17.10;1.00
4727;DHT22;2377;51.734;8.950;2023-07-31T11:38:32;17.10;1.00
4727;DHT22;2377;51.734;8.950;2023-07-31T11:41:03;17.10;1.00
4727;DHT22;2377;51.734;8.950;2023-07-31T11:43:31;17.20;1.00
4727;DHT22;2377;51.734;8.950;2023-07-31T11:46:00;17.20;1.00
4727;DHT22;2377;51.734;8.950;2023-07-31T11:48:30;17.30;1.00
4727;DHT22;2377;51.734;8.950;2023-07-31T11:51:01;17.30;1.00
4727;DHT22;2377;51.734;8.950;2023-07-31T11:53:33;17.30;1.00
4727;DHT22;2377;51.734;8.950;2023-07-31T11:56:06;17.30;1.00
4727;DHT22;2377;51.734;8.950;2023-07-31T11:58:37;17.30;1.00
4727;DHT22;2377;51.734;8.950;2023-07-31T12:01:06;17.30;1.00
4727;DHT22;2377;51.734;8.950;2023-07-31T12:03:37;17.20;1.00
4727;DHT22;2377;51.734;8.950;2023-07-31T12:06:05;17.30;1.00
4727;DHT22;2377;51.734;8.950;2023-07-31T12:08:33;17.30;1.00
4727;DHT22;2377;51.734;8.950;2023-07-31T12:11:03;17.30;1.00
4727;DHT22;2377;51.734;8.950;2023-07-31T12:13:32;17.30;1.00
4727;DHT22;2377;51.734;8.950;2023-07-31T12:16:02;17.20;1.00
4727;DHT22;2377;51.734;8.950;2023-07-31T12:18:33;17.10;1.00
4727;DHT22;2377;51.734;8.950;2023-07-31T12:21:05;17.20;1.00
4727;DHT22;2377;51.734;8.950;2023-07-31T12:23:37;17.10;1.00
4727;DHT22;2377;51.734;8.950;2023-07-31T12:26:08;17.10;1.00
4727;DHT22;2377;51.734;8.950;2023-07-31T12:28:38;17.10;1.00
4727;DHT22;2377;51.734;8.950;2023-07-31T12:31:10;17.10;1.00
4727;DHT22;2377;51.734;8.950;2023-07-31T12:33:40;17.10;1.00
4727;DHT22;2377;51.734;8.950;2023-07-31T12:36:09;17.10;1.00
4727;DHT22;2377;51.734;8.950;2023-07-31T12:38:37;17.10;1.00
4727;DHT22;2377;51.734;8.950;2023-07-31T12:41:05;17.10;1.00
4727;DHT22;2377;51.734;8.950;2023-07-31T12:43:33;17.30;1.00
4727;DHT22;2377;51.734;8.950;2023-07-31T12:46:00;17.30;1.00
4727;DHT22;2377;51.734;8.950;2023-07-31T12:48:27;17.30;1.00
4727;DHT22;2377;51.734;8.950;2023-07-31T12:50:56;17.40;1.00
4727;DHT22;2377;51.734;8.950;2023-07-31T12:53:23;17.50;1.00
4727;DHT22;2377;51.734;8.950;2023-07-31T12:55:50;17.60;1.00
4727;DHT22;2377;51.734;8.950;2023-07-31T12:58:17;17.60;1.00
4727;DHT22;2377;51.734;8.950;2023-07-31T13:00:44;17.60;1.00
4727;DHT22;2377;51.734;8.950;2023-07-31T13:03:12;17.60;1.00
4727;DHT22;2377;51.734;8.950;2023-07-31T13:05:39;17.60;1.00
4727;DHT22;2377;51.734;8.950;2023-07-31T13:08:07;17.60;1.00
4727;DHT22;2377;51.734;8.950;2023-07-31T13:10:34;17.60;1.00
4727;DHT22;2377;51.734;8.950;2023-07-31T13:13:02;17.60;1.00
4727;DHT22;2377;51.734;8.950;2023-07-31T13:15:29;17.50;1.00
4727;DHT22;2377;51.734;8.950;2023-07-31T13:17:56;17.50;1.00
4727;DHT22;2377;51.734;8.950;2023-07-31T13:20:23;17.50;1.00
4727;DHT22;2377;51.734;8.950;2023-07-31T13:22:50;17.50;1.00
4727;DHT22;2377;51.734;8.950;2023-07-31T13:25:19;17.50;1.00
4727;DHT22;2377;51.734;8.950;2023-07-31T13:27:46;17.50;1.00
4727;DHT22;2377;51.734;8.950;2023-07-31T13:30:13;17.50;1.00
4727;DHT22;2377;51.734;8.950;2023-07-31T13:32:40;17.40;1.00
4727;DHT22;2377;51.734;8.950;2023-07-31T13:35:08;17.40;1.00
4727;DHT22;2377;51.734;8.950;2023-07-31T13:37:37;17.40;1.00
4727;DHT22;2377;51.734;8.950;2023-07-31T13:40:05;17.40;1.00
4727;DHT22;2377;51.734;8.950;2023-07-31T13:42:34;17.40;1.00
4727;DHT22;2377;51.734;8.950;2023-07-31T13:45:01;17.50;1.00
4727;DHT22;2377;51.734;8.950;2023-07-31T13:47:29;17.60;1.00
4727;DHT22;2377;51.734;8.950;2023-07-31T13:49:56;17.50;1.00
4727;DHT22;2377;51.734;8.950;2023-07-31T13:52:23;17.50;1.00
4727;DHT22;2377;51.734;8.950;2023-07-31T13:54:50;17.60;1.00
4727;DHT22;2377;51.734;8.950;2023-07-31T13:57:18;17.60;1.00
4727;DHT22;2377;51.734;8.950;2023-07-31T13:59:46;17.70;1.00
4727;DHT22;2377;51.734;8.950;2023-07-31T14:02:13;17.70;1.00
4727;DHT22;2377;51.734;8.950;2023-07-31T14:04:40;17.80;1.00
4727;DHT22;2377;51.734;8.950;2023-07-31T14:07:07;17.80;1.00
4727;DHT22;2377;51.734;8.950;2023-07-31T14:09:35;17.80;1.00
4727;DHT22;2377;51.734;8.950;2023-07-31T14:12:02;17.80;1.00
4727;DHT22;2377;51.734;8.950;2023-07-31T14:14:30;17.80;1.00
4727;DHT22;2377;51.734;8.950;2023-07-31T14:17:00;17.80;1.00
4727;DHT22;2377;51.734;8.950;2023-07-31T14:19:28;17.80;1.00
4727;DHT22;2377;51.734;8.950;2023-07-31T14:21:55;17.80;1.00
4727;DHT22;2377;51.734;8.950;2023-07-31T14:24:22;17.80;1.00
4727;DHT22;2377;51.734;8.950;2023-07-31T14:26:49;17.80;1.00
4727;DHT22;2377;51.734;8.950;2023-07-31T14:29:16;17.80;1.00
4727;DHT22;2377;51.734;8.950;2023-07-31T14:31:44;17.80;1.00
4727;DHT22;2377;51.734;8.950;2023-07-31T14:34:13;17.70;1.00
4727;DHT22;2377;51.734;8.950;2023-07-31T14:36:41;17.80;1.00
4727;DHT22;2377;51.734;8.950;2023-07-31T14:39:10;17.80;1.00
4727;DHT22;2377;51.734;8.950;2023-07-31T14:41:37;17.70;1.00
4727;DHT22;2377;51.734;8.950;2023-07-31T14:44:04;17.70;1.00
4727;DHT22;2377;51.734;8.950;2023-07-31T14:46:31;17.60;1.00
4727;DHT22;2377;51.734;8.950;2023-07-31T14:48:58;17.50;1.00
4727;DHT22;2377;51.734;8.950;2023-07-31T14:51:27;17.50;1.00
4727;DHT22;2377;51.734;8.950;2023-07-31T14:53:54;17.50;1.00
4727;DHT22;2377;51.734;8.950;2023-07-31T14:56:21;17.50;1.00
4727;DHT22;2377;51.734;8.950;2023-07-31T14:58:48;17.50;1.00
4727;DHT22;2377;51.734;8.950;2023-07-31T15:01:15;17.50;1.00
4727;DHT22;2377;51.734;8.950;2023-07-31T15:03:43;17.50;1.00
4727;DHT22;2377;51.734;8.950;2023-07-31T15:06:10;17.50;1.00
4727;DHT22;2377;51.734;8.950;2023-07-31T15:08:39;17.50;1.00
4727;DHT22;2377;51.734;8.950;2023-07-31T15:11:09;17.50;1.00
4727;DHT22;2377;51.734;8.950;2023-07-31T15:13:36;17.50;1.00
4727;DHT22;2377;51.734;8.950;2023-07-31T15:16:04;17.50;1.00
4727;DHT22;2377;51.734;8.950;2023-07-31T15:18:31;17.60;1.00
4727;DHT22;2377;51.734;8.950;2023-07-31T15:20:58;17.60;1.00
4727;DHT22;2377;51.734;8.950;2023-07-31T15:23:25;17.60;1.00
4727;DHT22;2377;51.734;8.950;2023-07-31T15:25:54;17.60;1.00
4727;DHT22;2377;51.734;8.950;2023-07-31T15:28:21;17.70;1.00
4727;DHT22;2377;51.734;8.950;2023-07-31T15:30:48;17.70;1.00
4727;DHT22;2377;51.734;8.950;2023-07-31T15:33:16;17.80;1.00
4727;DHT22;2377;51.734;8.950;2023-07-31T15:35:43;17.80;1.00
4727;DHT22;2377;51.734;8.950;2023-07-31T15:38:10;17.80;1.00
4727;DHT22;2377;51.734;8.950;2023-07-31T15:40:38;17.80;1.00
4727;DHT22;2377;51.734;8.950;2023-07-31T15:43:07;17.70;1.00
4727;DHT22;2377;51.734;8.950;2023-07-31T15:45:34;17.70;1.00
4727;DHT22;2377;51.734;8.950;2023-07-31T15:48:01;17.80;1.00
4727;DHT22;2377;51.734;8.950;2023-07-31T15:50:28;17.80;1.00
4727;DHT22;2377;51.734;8.950;2023-07-31T15:52:55;17.70;1.00
4727;DHT22;2377;51.734;8.950;2023-07-31T15:55:23;17.70;1.00
4727;DHT22;2377;51.734;8.950;2023-07-31T15:57:50;17.80;1.00
4727;DHT22;2377;51.734;8.950;2023-07-31T16:00:19;17.80;1.00
4727;DHT22;2377;51.734;8.950;2023-07-31T16:02:46;17.80;1.00
4727;DHT22;2377;51.734;8.950;2023-07-31T16:05:14;17.80;1.00
4727;DHT22;2377;51.734;8.950;2023-07-31T16:07:41;17.80;1.00
4727;DHT22;2377;51.734;8.950;2023-07-31T16:10:09;17.80;1.00
4727;DHT22;2377;51.734;8.950;2023-07-31T16:12:36;17.80;1.00
4727;DHT22;2377;51.734;8.950;2023-07-31T16:15:04;17.80;1.00
4727;DHT22;2377;51.734;8.950;2023-07-31T16:17:33;17.80;1.00
4727;DHT22;2377;51.734;8.950;2023-07-31T16:20:00;17.80;1.00
4727;DHT22;2377;51.734;8.950;2023-07-31T16:22:27;17.80;1.00
4727;DHT22;2377;51.734;8.950;2023-07-31T16:24:54;17.80;1.00
4727;DHT22;2377;51.734;8.950;2023-07-31T16:27:21;17.80;1.00